Time;durP1;ratioP1;P1;durP2;ratioP2;P2;SDS_P1;SDS_P2;PMS_P1;PMS_P2;Temp;Humidity;BMP_temperature;BMP_pressure;BME280_temperature;BME280_humidity;BME280_pressure;Samples;Min_cycle;Max_cycle;Signal;HPM_P1;HPM_P2
2022/01/13 00:02:04;;;;;;;10.87;4.40;;;;;;;-0.74;26.67;99695.91;5089428;28;20051;-65
2022/01/13 00:04:30;;;;;;;7.40;4.10;;;;;;;-0.87;26.26;99650.59;5105893;28;20427;-66
2022/01/13 00:06:56;;;;;;;9.00;4.43;;;;;;;-0.53;26.21;99672.97;5089762;28;20348;-65
2022/01/13 00:09:22;;;;;;;8.37;4.07;;;;;;;-0.76;26.34;99689.94;5071832;28;20047;-65
2022/01/13 00:11:49;;;;;;;8.30;4.27;;;;;;;-0.68;26.25;99692.97;5072029;28;20278;-65
2022/01/13 00:17:10;;;;;;;7.93;4.20;;;;;;;-0.47;26.37;99678.69;5057174;28;20360;-71
2022/01/13 00:22:19;;;;;;;8.40;4.40;;;;;;;-1.01;26.24;99636.66;5090144;28;20292;-65
2022/01/13 00:24:49;;;;;;;9.30;4.53;;;;;;;-0.62;26.52;99674.38;5088147;28;20667;-66
2022/01/13 00:27:16;;;;;;;7.88;4.38;;;;;;;-0.76;26.45;99639.56;5071366;28;20290;-66
2022/01/13 00:29:45;;;;;;;12.50;4.57;;;;;;;-0.38;26.48;99666.88;5071937;28;20500;-65
2022/01/13 00:32:13;;;;;;;6.93;4.57;;;;;;;-0.28;26.48;99675.88;5072792;28;20293;-65
2022/01/13 00:34:40;;;;;;;8.33;4.10;;;;;;;-0.59;26.48;99640.28;5089653;28;20281;-65
2022/01/13 00:37:06;;;;;;;9.97;4.63;;;;;;;-0.66;26.53;99661.59;5089384;28;20285;-65
2022/01/13 00:39:32;;;;;;;9.40;4.80;;;;;;;-0.66;26.46;99659.81;5088053;28;20282;-65
2022/01/13 00:41:57;;;;;;;11.70;5.00;;;;;;;-0.69;26.66;99641.72;5105139;28;20048;-65
2022/01/13 00:44:23;;;;;;;11.20;4.67;;;;;;;-0.70;26.53;99650.50;5086960;28;20411;-65
2022/01/13 00:46:56;;;;;;;11.03;4.53;;;;;;;-0.23;26.50;99645.94;5091651;28;20043;-66
2022/01/13 00:49:22;;;;;;;13.17;4.50;;;;;;;-0.64;26.83;99638.84;5090477;28;20063;-65
2022/01/13 00:51:48;;;;;;;9.07;4.53;;;;;;;-0.61;27.07;99630.84;5090459;28;20266;-65
2022/01/13 00:54:14;;;;;;;11.37;5.13;;;;;;;-0.62;26.58;99627.41;5091700;28;20048;-72
2022/01/13 00:56:40;;;;;;;10.00;5.03;;;;;;;-0.64;26.41;99626.66;5056934;28;20044;-65
2022/01/13 00:59:09;;;;;;;10.53;5.40;;;;;;;-0.29;27.02;99616.75;5073470;28;20043;-65
2022/01/13 01:01:36;;;;;;;7.30;4.40;;;;;;;-0.65;26.60;99585.88;5091546;28;20277;-65
2022/01/13 01:04:03;;;;;;;6.90;4.33;;;;;;;-0.17;26.49;99614.25;5106898;28;20780;-65
2022/01/13 01:06:29;;;;;;;11.47;4.80;;;;;;;-1.09;26.53;99621.44;5089919;28;20286;-65
2022/01/13 01:08:55;;;;;;;12.23;5.23;;;;;;;-1.06;26.29;99610.84;5056150;28;20273;-66
2022/01/13 01:11:24;;;;;;;12.03;4.97;;;;;;;-0.62;26.74;99584.84;5107173;28;20086;-64
2022/01/13 01:13:51;;;;;;;7.73;4.77;;;;;;;-1.26;26.12;99542.56;5089842;28;20519;-65
2022/01/13 01:16:18;;;;;;;11.73;5.00;;;;;;;-0.92;26.42;99592.66;5091297;28;20370;-65
2022/01/13 01:29:03;;;;;;;6.87;3.93;;;;;;;-0.79;26.32;99574.56;5073258;28;20288;-65
2022/01/13 01:31:31;;;;;;;10.13;4.72;;;;;;;-1.22;26.09;99524.06;5089818;28;20357;-65
2022/01/13 01:34:16;;;;;;;9.63;4.70;;;;;;;-1.43;26.07;99527.88;5089705;28;20059;-66
2022/01/13 01:36:42;;;;;;;9.33;4.07;;;;;;;-1.12;26.48;99560.88;5090795;28;20398;-65
2022/01/13 01:39:08;;;;;;;10.27;4.77;;;;;;;-1.46;26.41;99558.47;5072293;28;20377;-65
2022/01/13 01:41:38;;;;;;;11.73;5.20;;;;;;;-0.97;26.13;99573.84;5072391;28;20297;-65
2022/01/13 01:44:18;;;;;;;11.15;4.65;;;;;;;-0.81;26.35;99561.63;5089217;28;20281;-64
2022/01/13 01:46:45;;;;;;;7.60;4.40;;;;;;;-1.24;26.35;99575.41;5074222;28;20085;-65
2022/01/13 01:49:18;;;;;;;8.33;4.80;;;;;;;-1.29;26.31;99561.78;5089209;28;20301;-64
2022/01/13 01:51:46;;;;;;;15.63;5.90;;;;;;;-1.37;26.76;99544.94;5089684;28;20282;-64
2022/01/13 01:54:12;;;;;;;7.33;4.30;;;;;;;-1.77;26.49;99544.53;5090274;28;20278;-64
2022/01/13 01:56:38;;;;;;;8.43;4.93;;;;;;;-1.72;26.52;99539.91;5088950;28;20347;-65
2022/01/13 01:59:11;;;;;;;12.10;5.63;;;;;;;-1.18;26.68;99546.41;5073345;28;20051;-65
2022/01/13 02:01:37;;;;;;;8.33;4.47;;;;;;;-1.89;26.64;99539.13;5094484;28;20275;-65
2022/01/13 02:04:03;;;;;;;9.97;6.07;;;;;;;-1.97;26.37;99541.34;5093042;28;20807;-65
2022/01/13 02:06:28;;;;;;;9.27;4.53;;;;;;;-2.06;26.43;99537.47;5092976;28;20285;-66
2022/01/13 02:08:56;;;;;;;12.40;4.93;;;;;;;-2.27;26.73;99523.00;5092747;28;20053;-66
2022/01/13 02:11:24;;;;;;;9.17;4.83;;;;;;;-1.83;26.67;99515.41;5091695;28;20048;-65
2022/01/13 02:13:53;;;;;;;11.90;5.27;;;;;;;-2.21;26.67;99543.47;5090450;28;20286;-66
2022/01/13 02:19:00;;;;;;;9.10;4.57;;;;;;;-2.28;27.01;99491.88;5092117;28;20724;-66
2022/01/13 02:21:27;;;;;;;9.23;4.33;;;;;;;-2.08;27.13;99526.31;5092548;28;20142;-66
2022/01/13 02:23:54;;;;;;;11.23;5.23;;;;;;;-1.93;26.69;99528.09;5074181;28;20286;-65
2022/01/13 02:26:22;;;;;;;11.27;5.53;;;;;;;-2.62;27.26;99491.97;5091058;28;20281;-65
2022/01/13 02:28:55;;;;;;;9.07;4.73;;;;;;;-1.82;27.18;99532.69;5094230;28;20274;-65
2022/01/13 02:31:21;;;;;;;15.23;5.57;;;;;;;-2.60;27.74;99531.72;5092839;28;20082;-65
2022/01/13 02:33:47;;;;;;;9.77;4.70;;;;;;;-2.49;27.29;99519.84;5094485;28;20682;-64
2022/01/13 02:36:18;;;;;;;15.80;6.73;;;;;;;-2.10;27.11;99530.75;5092715;28;20055;-64
2022/01/13 02:38:53;;;;;;;10.10;5.40;;;;;;;-2.19;27.02;99546.00;5092621;28;20043;-64
2022/01/13 02:41:22;;;;;;;15.47;6.07;;;;;;;-2.74;27.34;99532.44;5094139;28;20281;-64
2022/01/13 02:43:53;;;;;;;9.23;5.60;;;;;;;-2.81;27.44;99530.19;5092609;28;20327;-64
2022/01/13 02:49:05;;;;;;;11.17;5.80;;;;;;;-2.16;27.27;99535.44;5093502;28;20416;-64
2022/01/13 02:51:31;;;;;;;10.60;6.10;;;;;;;-2.68;27.63;99518.28;5093292;28;20282;-64
2022/01/13 02:53:57;;;;;;;10.70;5.47;;;;;;;-2.59;27.71;99536.84;5075369;28;20318;-65
2022/01/13 02:56:23;;;;;;;12.93;6.40;;;;;;;-2.73;27.32;99533.25;5092124;28;20341;-64
2022/01/13 02:58:49;;;;;;;14.00;5.37;;;;;;;-2.68;27.53;99520.88;5075402;28;20150;-64
2022/01/13 03:01:15;;;;;;;9.93;5.73;;;;;;;-2.63;27.79;99519.72;5092016;28;20689;-64
2022/01/13 03:03:42;;;;;;;12.00;6.07;;;;;;;-2.52;27.58;99538.19;5091909;28;20310;-64
2022/01/13 03:06:10;;;;;;;9.00;5.07;;;;;;;-2.17;27.89;99545.00;5093222;28;20044;-64
2022/01/13 03:08:37;;;;;;;11.93;6.70;;;;;;;-2.48;27.95;99542.34;5075541;28;20650;-64
2022/01/13 03:11:04;;;;;;;14.37;6.70;;;;;;;-2.61;28.36;99537.81;5091017;28;20343;-65
2022/01/13 03:13:30;;;;;;;12.43;5.57;;;;;;;-3.15;28.15;99473.91;5092794;28;20343;-66
2022/01/13 03:15:56;;;;;;;13.17;5.70;;;;;;;-2.80;27.99;99505.91;5108983;28;20761;-65
2022/01/13 03:18:22;;;;;;;11.93;6.77;;;;;;;-3.09;27.90;99485.78;5075421;28;20043;-73
2022/01/13 03:20:48;;;;;;;14.03;6.53;;;;;;;-2.67;27.82;99504.34;5091914;28;20281;-65
2022/01/13 03:23:18;;;;;;;10.27;5.90;;;;;;;-3.00;27.66;99482.72;5091469;28;20040;-66
2022/01/13 03:25:45;;;;;;;9.52;5.47;;;;;;;-2.73;27.27;99496.88;5092969;28;20282;-66
2022/01/13 03:28:17;;;;;;;10.20;5.37;;;;;;;-2.55;27.58;99490.75;5092138;28;20088;-65
2022/01/13 03:30:44;;;;;;;12.47;5.27;;;;;;;-2.45;27.59;99484.13;5075815;28;20373;-66
2022/01/13 03:33:11;;;;;;;9.87;5.17;;;;;;;-2.68;27.27;99481.88;5091352;28;20312;-65
2022/01/13 03:35:38;;;;;;;10.60;5.50;;;;;;;-2.53;27.47;99476.72;5091081;28;20286;-66
2022/01/13 03:38:05;;;;;;;12.67;4.43;;;;;;;-2.64;27.28;99480.78;5074017;28;20286;-65
2022/01/13 03:40:31;;;;;;;13.10;5.63;;;;;;;-3.26;26.80;99465.00;5108483;28;20339;-65
2022/01/13 03:42:58;;;;;;;8.77;5.70;;;;;;;-3.46;27.22;99401.91;5091256;28;20336;-65
2022/01/13 03:45:23;;;;;;;7.73;4.57;;;;;;;-3.63;26.82;99455.59;5091045;28;20356;-74
2022/01/13 03:47:49;;;;;;;9.70;5.20;;;;;;;-3.89;26.88;99443.88;5091272;28;20781;-66
2022/01/13 03:50:15;;;;;;;5.93;4.00;;;;;;;-4.54;27.91;99443.50;5108120;28;20495;-64
2022/01/13 03:53:01;;;;;;;10.17;5.67;;;;;;;-4.39;29.10;99426.41;5090816;28;20040;-64
2022/01/13 03:55:38;;;;;;;7.77;5.10;;;;;;;-4.18;28.43;99425.44;5091890;28;20126;-65
2022/01/13 03:58:41;;;;;;;12.90;6.87;;;;;;;-4.23;28.00;99414.44;5090627;28;20281;-64
2022/01/13 04:01:57;;;;;;;13.90;4.87;;;;;;;-4.21;27.76;99386.66;5092097;28;20314;-64
2022/01/13 04:04:23;;;;;;;11.10;5.33;;;;;;;-4.96;27.81;99359.97;4993804;28;20330;-64
2022/01/13 04:06:49;;;;;;;11.97;5.83;;;;;;;-5.06;27.43;99356.13;5057502;28;20377;-64
2022/01/13 04:09:33;;;;;;;11.20;5.80;;;;;;;-4.46;27.69;99381.78;5073648;28;20097;-64
2022/01/13 04:12:05;;;;;;;8.97;4.77;;;;;;;-4.84;27.32;99385.31;5090885;28;20044;-64
2022/01/13 04:14:43;;;;;;;18.17;5.10;;;;;;;-4.82;27.42;99395.59;5077143;28;20288;-64
2022/01/13 04:17:14;;;;;;;9.60;4.67;;;;;;;-4.69;27.69;99396.72;5110988;28;20278;-64
2022/01/13 04:19:43;;;;;;;8.93;4.67;;;;;;;-4.63;27.46;99399.91;5093706;28;20340;-65
2022/01/13 04:22:10;;;;;;;10.87;3.90;;;;;;;-4.66;27.54;99402.63;5076914;28;20715;-65
2022/01/13 04:24:38;;;;;;;6.80;3.70;;;;;;;-4.66;27.25;99389.66;5110784;28;20294;-64
2022/01/13 04:27:05;;;;;;;8.37;4.43;;;;;;;-5.56;27.52;99381.59;5109319;28;20741;-65
2022/01/13 04:29:40;;;;;;;13.23;5.27;;;;;;;-5.57;27.46;99372.16;5072856;28;20289;-65
2022/01/13 04:32:06;;;;;;;9.80;4.77;;;;;;;-5.36;27.46;99353.13;5073824;28;20282;-64
2022/01/13 04:34:32;;;;;;;9.47;5.60;;;;;;;-5.32;27.82;99354.66;5091173;28;20317;-66
2022/01/13 04:36:59;;;;;;;12.83;5.60;;;;;;;-5.31;27.73;99360.69;5087569;28;20721;-66
2022/01/13 04:39:29;;;;;;;10.53;5.90;;;;;;;-5.17;27.40;99346.22;5093605;28;20372;-67
2022/01/13 04:41:55;;;;;;;12.40;5.43;;;;;;;-5.51;27.20;99327.94;5076761;28;20290;-66
2022/01/13 04:44:23;;;;;;;14.13;6.03;;;;;;;-5.23;27.71;99350.84;5093256;28;20317;-65
2022/01/13 04:46:51;;;;;;;13.37;4.23;;;;;;;-5.13;27.77;99362.47;5109902;28;20277;-66
2022/01/13 04:49:18;;;;;;;10.63;4.97;;;;;;;-5.61;27.26;99359.41;5111263;28;20404;-66
2022/01/13 04:51:45;;;;;;;11.57;5.13;;;;;;;-5.63;27.62;99312.09;5110949;28;20289;-65
2022/01/13 04:54:12;;;;;;;8.03;4.10;;;;;;;-5.93;27.85;99297.91;5093023;28;20334;-66
2022/01/13 04:59:06;;;;;;;5.80;3.70;;;;;;;-5.75;27.39;99317.78;5099697;28;20308;-65
2022/01/13 05:01:32;;;;;;;9.10;4.57;;;;;;;-5.58;27.60;99342.00;5100971;28;20046;-66
2022/01/13 05:03:58;;;;;;;8.90;5.03;;;;;;;-5.85;27.61;99344.97;5107465;28;20385;-66
2022/01/13 05:06:24;;;;;;;9.97;5.27;;;;;;;-6.00;27.85;99340.44;5074127;28;20364;-67
2022/01/13 05:08:50;;;;;;;7.90;5.03;;;;;;;-5.65;28.16;99334.59;5090322;28;20046;-65
2022/01/13 05:11:17;;;;;;;10.53;5.00;;;;;;;-5.85;28.15;99311.34;5107138;28;20507;-67
2022/01/13 05:13:44;;;;;;;11.90;5.20;;;;;;;-6.06;27.55;99309.66;5090155;28;20296;-66
2022/01/13 05:16:20;;;;;;;10.13;4.93;;;;;;;-6.51;28.10;99314.97;5106677;28;20316;-65
2022/01/13 05:19:09;;;;;;;7.33;4.33;;;;;;;-6.53;28.27;99323.69;5106579;28;20914;-65
2022/01/13 05:22:16;;;;;;;6.40;3.83;;;;;;;-6.89;28.71;99286.38;5093364;28;20281;-67
2022/01/13 05:24:24;;;;;;;7.73;4.17;;;;;;;-6.46;28.42;99296.69;5096796;28;20381;-66
2022/01/13 05:26:51;;;;;;;11.30;3.67;;;;;;;-6.46;28.72;99297.53;5107360;28;20675;-66
2022/01/13 05:29:20;;;;;;;11.70;5.27;;;;;;;-7.08;29.02;99292.25;5104837;28;20281;-68
2022/01/13 05:31:48;;;;;;;7.57;4.75;;;;;;;-6.96;29.11;99310.75;5106760;28;20289;-68
2022/01/13 05:34:14;;;;;;;14.47;6.97;;;;;;;-7.42;29.28;99281.50;5104814;28;20043;-66
2022/01/13 05:36:40;;;;;;;5.00;3.23;;;;;;;-7.12;29.33;99274.38;5088535;28;20315;-65
2022/01/13 05:39:05;;;;;;;10.57;4.37;;;;;;;-7.10;29.41;99267.38;5087406;28;20273;-67
2022/01/13 05:41:33;;;;;;;9.93;4.60;;;;;;;-7.40;29.72;99202.34;5103766;28;20127;-67
2022/01/13 05:43:59;;;;;;;18.53;5.47;;;;;;;-6.97;29.33;99226.47;5087059;28;20044;-66
2022/01/13 05:46:25;;;;;;;11.13;5.33;;;;;;;-7.01;29.21;99242.06;5105624;28;20313;-67
2022/01/13 05:48:54;;;;;;;10.60;5.43;;;;;;;-7.38;29.43;99226.31;5103426;28;20308;-65
2022/01/13 05:51:20;;;;;;;11.40;4.73;;;;;;;-7.66;29.73;99215.38;5105053;28;20036;-66
2022/01/13 05:53:46;;;;;;;7.73;4.80;;;;;;;-8.69;30.76;99214.78;5105337;28;20339;-69
2022/01/13 05:56:13;;;;;;;5.00;3.23;;;;;;;-8.59;32.20;99218.69;5105404;28;20389;-66
2022/01/13 05:58:38;;;;;;;10.20;4.70;;;;;;;-8.32;31.44;99214.38;5104783;28;20066;-65
2022/01/13 06:01:04;;;;;;;9.73;5.07;;;;;;;-8.60;31.14;99170.69;5106423;28;20743;-65
2022/01/13 06:03:30;;;;;;;11.63;5.27;;;;;;;-8.23;31.66;99207.16;5105952;28;20055;-65
2022/01/13 06:05:57;;;;;;;10.23;4.90;;;;;;;-8.06;31.66;99225.44;5071454;28;20128;-68
2022/01/13 06:08:23;;;;;;;8.20;4.67;;;;;;;-7.98;31.82;99232.88;5106609;28;20278;-66
2022/01/13 06:10:48;;;;;;;8.10;3.80;;;;;;;-7.85;31.32;99222.06;5106441;28;20287;-65
2022/01/13 06:13:14;;;;;;;7.30;4.03;;;;;;;-7.61;30.80;99217.78;5084388;28;20059;-66
2022/01/13 06:15:40;;;;;;;6.23;3.57;;;;;;;-7.19;30.93;99222.16;5069893;28;20093;-67
2022/01/13 06:18:12;;;;;;;9.47;4.17;;;;;;;-6.73;30.38;99210.03;5041873;28;20491;-61
2022/01/13 06:20:39;;;;;;;7.37;4.20;;;;;;;-7.73;30.73;99182.97;5102625;28;21223;-69
2022/01/13 06:23:07;;;;;;;5.70;3.90;;;;;;;-7.01;30.21;99218.00;5105489;28;20448;-65
2022/01/13 06:25:37;;;;;;;12.30;4.95;;;;;;;-7.13;30.23;99226.22;5105650;28;20660;-66
2022/01/13 06:28:06;;;;;;;10.17;3.47;;;;;;;-7.31;30.12;99191.69;5107329;28;20570;-65
2022/01/13 06:30:32;;;;;;;7.33;4.90;;;;;;;-7.43;29.92;99184.41;5106348;28;20288;-65
2022/01/13 06:32:58;;;;;;;5.73;4.27;;;;;;;-7.40;29.85;99186.03;5107354;28;20273;-69
2022/01/13 06:35:24;;;;;;;7.27;4.47;;;;;;;-7.41;29.46;99203.22;5073406;28;20676;-64
2022/01/13 06:37:50;;;;;;;12.10;5.03;;;;;;;-7.63;28.97;99229.88;5108033;28;20556;-66
2022/01/13 06:40:15;;;;;;;10.63;5.43;;;;;;;-8.20;29.63;99207.03;5089650;28;20071;-64
2022/01/13 06:42:41;;;;;;;6.73;4.27;;;;;;;-8.20;29.46;99106.59;5106824;28;20047;-64
2022/01/13 06:45:10;;;;;;;11.63;5.23;;;;;;;-7.65;29.47;99162.91;5107617;28;20499;-67
2022/01/13 06:47:37;;;;;;;11.07;5.23;;;;;;;-7.60;29.51;99191.09;5110649;28;20776;-65
2022/01/13 06:50:03;;;;;;;8.97;4.37;;;;;;;-7.95;29.67;99178.66;5093243;28;20307;-67
2022/01/13 06:52:29;;;;;;;7.80;4.23;;;;;;;-7.87;29.39;99181.81;5093393;28;20281;-71
2022/01/13 06:54:55;;;;;;;11.93;5.00;;;;;;;-7.86;29.63;99157.72;5110623;28;20281;-66
2022/01/13 06:57:20;;;;;;;7.27;4.40;;;;;;;-7.93;29.89;99159.66;5111720;28;20420;-65
2022/01/13 06:59:46;;;;;;;7.93;5.07;;;;;;;-8.13;29.66;99113.19;5110267;28;20039;-65
2022/01/13 07:02:14;;;;;;;8.50;4.67;;;;;;;-7.39;29.52;99147.28;5109230;28;20511;-65
2022/01/13 07:04:39;;;;;;;7.33;3.83;;;;;;;-7.15;28.77;99151.47;5110282;28;20823;-66
2022/01/13 07:07:07;;;;;;;6.07;3.90;;;;;;;-7.31;28.94;99159.88;5108681;28;20327;-67
2022/01/13 07:09:33;;;;;;;5.70;3.80;;;;;;;-6.72;28.79;99165.22;5090789;28;20074;-66
2022/01/13 07:11:58;;;;;;;13.00;5.57;;;;;;;-6.42;28.47;99161.34;5109343;28;20719;-66
2022/01/13 07:14:24;;;;;;;8.97;4.57;;;;;;;-5.21;27.45;99144.53;5109502;28;20482;-68
2022/01/13 07:16:50;;;;;;;11.50;5.30;;;;;;;-4.64;26.06;99135.72;5108244;28;20423;-69
2022/01/13 07:19:16;;;;;;;10.43;5.27;;;;;;;-3.88;25.07;99131.72;5107499;28;20419;-65
2022/01/13 07:21:44;;;;;;;7.57;4.30;;;;;;;-3.47;24.80;99135.50;5109790;28;20388;-65
2022/01/13 07:24:10;;;;;;;8.30;4.37;;;;;;;-3.80;24.55;99121.75;5110911;28;20784;-66
2022/01/13 07:26:36;;;;;;;5.60;4.13;;;;;;;-3.96;24.45;99114.88;5109873;28;20764;-66
2022/01/13 07:29:03;;;;;;;9.23;5.30;;;;;;;-4.48;24.61;99054.56;5110795;27;20756;-65
2022/01/13 07:31:29;;;;;;;15.07;7.33;;;;;;;-4.70;25.12;99102.34;5109663;28;20687;-65
2022/01/13 07:33:55;;;;;;;9.00;5.50;;;;;;;-4.59;25.51;99064.63;5110053;28;20321;-66
2022/01/13 07:36:21;;;;;;;12.93;5.73;;;;;;;-3.33;24.70;99081.97;5109355;28;20339;-66
2022/01/13 07:38:46;;;;;;;12.30;6.67;;;;;;;-3.00;23.50;99067.09;5109013;28;20047;-65
2022/01/13 07:41:12;;;;;;;12.23;5.80;;;;;;;-2.90;23.32;99060.44;5081625;28;20082;-66
2022/01/13 07:43:42;;;;;;;21.70;9.13;;;;;;;-3.44;24.14;99081.78;5105259;28;20146;-66
2022/01/13 07:46:08;;;;;;;23.33;8.63;;;;;;;-3.41;24.14;99092.78;5108444;28;20628;-67
2022/01/13 07:48:34;;;;;;;21.50;7.87;;;;;;;-3.54;23.99;99073.66;5073295;28;20300;-65
2022/01/13 07:50:59;;;;;;;24.17;9.20;;;;;;;-2.89;23.97;99078.53;5108053;28;20769;-70
2022/01/13 07:53:25;;;;;;;18.10;7.63;;;;;;;-1.34;22.60;99068.13;5074310;28;20124;-67
2022/01/13 07:55:51;;;;;;;16.13;7.93;;;;;;;-0.87;21.64;99064.09;5107977;28;20479;-68
2022/01/13 07:58:17;;;;;;;21.00;7.33;;;;;;;0.08;20.90;99052.34;5090134;28;20495;-68
2022/01/13 08:00:43;;;;;;;13.57;7.43;;;;;;;0.79;19.97;99042.81;5108447;28;20469;-67
2022/01/13 08:03:08;;;;;;;16.77;8.67;;;;;;;1.28;19.40;99047.88;5109018;28;20044;-66
2022/01/13 08:05:34;;;;;;;13.37;7.40;;;;;;;1.83;18.77;99021.78;5089496;28;20093;-67
2022/01/13 08:08:00;;;;;;;13.67;6.97;;;;;;;2.15;18.36;99022.75;5088433;28;20044;-67
2022/01/13 08:10:26;;;;;;;14.50;7.67;;;;;;;2.08;18.41;99020.72;5107422;28;20039;-66
2022/01/13 08:12:51;;;;;;;14.73;7.50;;;;;;;1.05;19.07;99015.59;5106637;28;20563;-67
2022/01/13 08:15:17;;;;;;;15.50;7.40;;;;;;;-0.30;19.89;99000.22;5108317;28;20122;-65
2022/01/13 08:20:31;;;;;;;16.93;7.73;;;;;;;-0.94;20.96;98961.19;5105330;28;20489;-70
2022/01/13 08:22:57;;;;;;;17.70;7.93;;;;;;;-1.50;21.12;98971.94;5091358;28;20049;-71
2022/01/13 08:25:24;;;;;;;17.97;7.07;;;;;;;-1.67;21.56;98919.28;5109206;28;20059;-70
2022/01/13 08:27:49;;;;;;;19.60;7.90;;;;;;;-1.50;21.32;98960.66;5072748;28;20040;-70
2022/01/13 08:30:16;;;;;;;16.20;7.93;;;;;;;-1.15;21.20;98952.22;5106219;28;20097;-70
2022/01/13 08:32:42;;;;;;;16.83;8.53;;;;;;;-0.42;20.68;98894.13;5106999;28;20062;-69
2022/01/13 08:35:09;;;;;;;18.13;7.90;;;;;;;0.94;20.00;98904.94;5056945;28;20515;-68
2022/01/13 08:37:34;;;;;;;12.87;6.97;;;;;;;1.13;19.39;98873.81;5107302;28;20061;-68
2022/01/13 08:40:05;;;;;;;12.73;6.90;;;;;;;2.63;18.96;98879.09;5108263;28;20039;-69
2022/01/13 08:42:34;;;;;;;;;;;;;;;3.48;17.73;98886.63;5073277;28;20119;-69
2022/01/13 08:45:00;;;;;;;16.77;7.03;;;;;;;2.25;18.77;98884.84;5107142;28;19915;-69
2022/01/13 08:47:26;;;;;;;14.47;7.27;;;;;;;1.74;18.35;98881.16;5055636;28;20032;-68
2022/01/13 08:49:52;;;;;;;18.67;7.30;;;;;;;0.77;19.79;98864.38;5108128;28;20043;-68
2022/01/13 08:52:18;;;;;;;14.90;7.50;;;;;;;-0.96;21.01;98791.09;5107024;28;20035;-68
2022/01/13 08:54:46;;;;;;;17.83;8.27;;;;;;;-1.89;21.70;98827.00;5106623;28;20067;-68
2022/01/13 08:57:12;;;;;;;18.73;8.37;;;;;;;-2.17;22.79;98828.91;5108164;28;20043;-68
2022/01/13 08:59:39;;;;;;;21.07;8.37;;;;;;;-2.74;23.19;98849.00;5087335;28;20032;-68
2022/01/13 09:02:04;;;;;;;20.60;9.03;;;;;;;-3.05;23.02;98835.38;5065046;28;20090;-68
2022/01/13 09:04:33;;;;;;;27.20;9.60;;;;;;;-3.03;23.41;98815.38;5090038;28;20281;-68
2022/01/13 09:06:59;;;;;;;16.23;6.80;;;;;;;-2.79;23.82;98808.66;5108541;28;20269;-69
2022/01/13 09:09:27;;;;;;;15.73;7.87;;;;;;;-2.85;23.20;98809.03;5105806;28;20407;-69
2022/01/13 09:11:53;;;;;;;19.57;8.13;;;;;;;-2.80;23.26;98794.00;5106498;28;20039;-69
2022/01/13 09:14:24;;;;;;;12.57;6.53;;;;;;;-2.74;23.32;98809.19;5108016;28;20657;-69
2022/01/13 09:16:51;;;;;;;12.90;7.30;;;;;;;-2.76;23.34;98796.31;5108230;28;20045;-69
2022/01/13 09:19:18;;;;;;;12.47;6.77;;;;;;;-3.02;23.53;98765.09;5104781;28;20330;-69
2022/01/13 09:21:45;;;;;;;13.80;6.57;;;;;;;-3.00;24.25;98765.81;5108062;28;20292;-71
2022/01/13 09:24:14;;;;;;;14.63;7.17;;;;;;;-3.29;24.59;98746.03;5071879;28;20285;-69
2022/01/13 09:26:40;;;;;;;18.13;7.47;;;;;;;-3.60;24.83;98752.25;5107250;28;20309;-69
2022/01/13 09:29:07;;;;;;;17.53;7.67;;;;;;;-3.69;25.42;98739.84;5109747;28;20756;-68
2022/01/13 09:31:37;;;;;;;11.50;6.73;;;;;;;-3.95;25.45;98746.53;5108366;28;20799;-68
2022/01/13 09:34:04;;;;;;;13.83;6.63;;;;;;;-4.05;25.86;98749.78;5074057;28;20409;-68
2022/01/13 09:36:33;;;;;;;17.37;7.27;;;;;;;-4.13;26.08;98754.56;5074216;28;20305;-68
2022/01/13 09:39:07;;;;;;;13.03;6.67;;;;;;;-4.06;26.17;98735.16;5090883;28;20368;-68
2022/01/13 09:41:34;;;;;;;10.77;4.53;;;;;;;-4.30;26.49;98746.91;5073662;28;20281;-68
2022/01/13 09:44:04;;;;;;;7.73;4.47;;;;;;;-3.91;26.37;98745.47;5107766;28;20311;-69
2022/01/13 09:46:34;;;;;;;9.23;5.43;;;;;;;-4.38;26.76;98752.53;5090961;28;20337;-68
2022/01/13 09:49:04;;;;;;;15.27;6.53;;;;;;;-4.81;27.22;98724.78;5109148;28;20122;-67
2022/01/13 09:51:31;;;;;;;11.05;5.32;;;;;;;-4.54;27.28;98696.50;5090876;28;20293;-67
2022/01/13 09:53:56;;;;;;;11.37;6.03;;;;;;;-4.91;27.30;98681.38;5107543;28;20228;-68
2022/01/13 09:56:23;;;;;;;8.83;4.43;;;;;;;-4.66;27.76;98692.88;5108563;28;20763;-68
2022/01/13 09:58:48;;;;;;;11.70;5.57;;;;;;;-4.97;27.75;98718.81;5107584;28;20048;-67
2022/01/13 10:01:15;;;;;;;12.37;6.17;;;;;;;-4.36;27.46;98680.75;5090909;28;20273;-68
2022/01/13 10:03:41;;;;;;;10.57;5.37;;;;;;;-4.64;27.80;98623.66;5090569;28;20176;-68
2022/01/13 10:06:13;;;;;;;10.97;5.73;;;;;;;-4.43;27.59;98595.69;5107385;28;20270;-68
2022/01/13 10:08:40;;;;;;;13.07;5.80;;;;;;;-4.10;27.76;98642.91;5090558;28;20280;-69
2022/01/13 10:11:44;;;;;;;12.73;6.30;;;;;;;-4.24;28.31;98627.34;5073757;28;20392;-68
2022/01/13 10:16:23;;;;;;;12.90;4.57;;;;;;;-4.65;27.96;98629.78;5107550;28;20793;-68
2022/01/13 10:17:04;;;;;;;13.30;5.80;;;;;;;-4.63;28.01;98634.88;5071940;28;20351;-68
2022/01/13 10:19:38;;;;;;;9.07;4.77;;;;;;;-4.01;28.31;98627.63;5105385;28;20297;-68
2022/01/13 10:22:23;;;;;;;9.03;4.33;;;;;;;-3.83;28.13;98617.91;5077113;28;20286;-68
2022/01/13 10:24:54;;;;;;;17.33;5.40;;;;;;;-4.23;28.07;98566.81;5089919;28;20311;-67
2022/01/13 10:27:29;;;;;;;7.30;3.83;;;;;;;-3.82;28.46;98568.53;5086363;28;20493;-68
2022/01/13 10:30:15;;;;;;;8.80;4.17;;;;;;;-3.92;28.35;98554.47;5090349;28;20339;-68
2022/01/13 10:32:41;;;;;;;8.80;3.73;;;;;;;-3.77;28.19;98552.69;5073101;28;20290;-68
2022/01/13 10:35:13;;;;;;;8.30;4.60;;;;;;;-4.04;28.60;98477.44;5089785;28;20300;-68
2022/01/13 10:37:40;;;;;;;11.20;4.57;;;;;;;-3.76;28.54;98469.59;5073769;28;20289;-68
2022/01/13 10:40:10;;;;;;;8.87;5.00;;;;;;;-3.59;28.39;98508.25;5073366;28;20286;-68
2022/01/13 10:43:31;;;;;;;7.03;3.90;;;;;;;-3.30;28.42;98497.75;5090555;28;20286;-67
2022/01/13 10:45:33;;;;;;;9.43;3.90;;;;;;;-3.30;28.27;98501.19;5067971;28;20297;-67
2022/01/13 10:48:14;;;;;;;6.97;4.37;;;;;;;-3.26;28.46;98499.22;5074045;28;20378;-66
2022/01/13 10:50:44;;;;;;;8.13;3.67;;;;;;;-3.75;28.38;98479.03;5091542;28;20277;-68
2022/01/13 10:53:13;;;;;;;5.93;3.63;;;;;;;-3.34;28.35;98447.81;5091784;28;20274;-67
2022/01/13 10:55:41;;;;;;;5.33;3.80;;;;;;;-3.31;28.69;98450.22;5079267;28;20431;-67
2022/01/13 10:58:07;;;;;;;9.83;3.83;;;;;;;-3.83;28.56;98449.34;5109470;28;20641;-68
2022/01/13 11:00:34;;;;;;;7.27;3.27;;;;;;;-3.25;28.86;98447.22;5106002;28;20380;-68
2022/01/13 11:03:08;;;;;;;7.27;3.50;;;;;;;-2.74;28.23;98417.72;5110857;28;20047;-67
2022/01/13 11:05:55;;;;;;;6.57;3.80;;;;;;;-3.12;28.52;98413.47;5109211;28;20330;-67
2022/01/13 11:08:40;;;;;;;7.07;3.63;;;;;;;-2.81;28.78;98382.69;5110686;28;20286;-67
2022/01/13 11:11:06;;;;;;;6.20;3.80;;;;;;;-3.51;28.96;98380.63;5110188;28;20322;-68
2022/01/13 11:13:39;;;;;;;8.47;4.17;;;;;;;-3.29;28.96;98359.25;5092863;28;20293;-67
2022/01/13 11:16:05;;;;;;;12.37;5.20;;;;;;;-3.63;29.37;98332.16;5109899;28;20066;-67
2022/01/13 11:18:33;;;;;;;16.90;5.47;;;;;;;-3.01;29.20;98356.44;5109925;28;20740;-67
2022/01/13 11:21:01;;;;;;;11.07;4.30;;;;;;;-3.00;29.07;98351.16;5076561;28;20039;-67
2022/01/13 11:23:26;;;;;;;8.17;3.70;;;;;;;-3.39;29.59;98338.28;5108247;28;20293;-68
2022/01/13 11:25:55;;;;;;;6.53;4.60;;;;;;;-2.93;29.72;98304.78;5109595;28;20292;-67
2022/01/13 11:28:23;;;;;;;11.03;3.80;;;;;;;-3.25;29.87;98303.59;5111110;28;20094;-67
2022/01/13 11:30:50;;;;;;;5.83;3.60;;;;;;;-3.31;30.45;98310.06;5108837;28;20768;-65
2022/01/13 11:33:20;;;;;;;12.07;4.17;;;;;;;-2.77;30.65;98301.03;5090859;28;20281;-65
2022/01/13 11:35:53;;;;;;;8.32;3.63;;;;;;;-2.93;30.65;98277.06;5107311;28;20347;-64
2022/01/13 11:38:23;;;;;;;8.27;3.70;;;;;;;-2.68;31.03;98287.38;5089555;28;20613;-64
2022/01/13 11:40:51;;;;;;;6.83;3.43;;;;;;;-3.24;31.28;98111.41;5108596;28;20325;-64
2022/01/13 11:43:28;;;;;;;6.67;3.60;;;;;;;-2.14;30.85;98214.97;5107899;28;20352;-64
2022/01/13 11:46:10;;;;;;;6.43;3.37;;;;;;;-2.30;31.20;98175.44;5109326;28;20687;-67
2022/01/13 11:48:38;;;;;;;7.03;3.37;;;;;;;-2.87;31.71;98206.50;5106835;28;20280;-65
2022/01/13 11:51:17;;;;;;;6.30;3.43;;;;;;;-1.94;31.71;98183.09;5110623;28;20289;-69
2022/01/13 11:54:00;;;;;;;6.87;3.57;;;;;;;-1.83;31.88;98183.09;5111036;28;20296;-67
2022/01/13 11:56:28;;;;;;;6.40;3.90;;;;;;;-1.95;32.05;98173.59;5092842;28;20400;-69
2022/01/13 11:58:55;;;;;;;8.70;3.67;;;;;;;-2.01;32.60;98181.88;5088021;28;20372;-67
2022/01/13 12:01:25;;;;;;;10.47;4.70;;;;;;;-1.35;31.99;98171.50;5069208;28;20282;-69
2022/01/13 12:03:53;;;;;;;6.53;3.70;;;;;;;-1.59;32.64;98164.75;5089447;28;20281;-66